sensor_id;sensor_type;location;lat;lon;timestamp;P1;durP1;ratioP1;P2;durP2;ratioP2
60078;SDS011;45951;45.824;8.824;2024-03-02T00:01:36;1.80;;;1.00;;
60078;SDS011;45951;45.824;8.824;2024-03-02T00:03:16;0.93;;;0.93;;
60078;SDS011;45951;45.824;8.824;2024-03-02T00:04:57;1.15;;;0.82;;
60078;SDS011;45951;45.824;8.824;2024-03-02T00:06:37;0.73;;;0.73;;
60078;SDS011;45951;45.824;8.824;2024-03-02T00:08:23;1.83;;;0.93;;
60078;SDS011;45951;45.824;8.824;2024-03-02T00:10:05;0.85;;;0.80;;
60078;SDS011;45951;45.824;8.824;2024-03-02T00:11:47;0.90;;;0.90;;
60078;SDS011;45951;45.824;8.824;2024-03-02T00:13:28;0.80;;;0.80;;
60078;SDS011;45951;45.824;8.824;2024-03-02T00:15:33;0.70;;;0.70;;
60078;SDS011;45951;45.824;8.824;2024-03-02T00:17:24;1.02;;;0.70;;
60078;SDS011;45951;45.824;8.824;2024-03-02T00:19:07;1.08;;;0.65;;
60078;SDS011;45951;45.824;8.824;2024-03-02T00:20:48;0.95;;;0.60;;
60078;SDS011;45951;45.824;8.824;2024-03-02T00:22:29;1.98;;;0.85;;
60078;SDS011;45951;45.824;8.824;2024-03-02T00:24:31;0.80;;;0.73;;
60078;SDS011;45951;45.824;8.824;2024-03-02T00:26:12;0.75;;;0.70;;
60078;SDS011;45951;45.824;8.824;2024-03-02T00:27:52;1.25;;;0.95;;
60078;SDS011;45951;45.824;8.824;2024-03-02T00:29:33;0.90;;;0.80;;
60078;SDS011;45951;45.824;8.824;2024-03-02T00:31:14;0.68;;;0.65;;
60078;SDS011;45951;45.824;8.824;2024-03-02T00:32:55;0.57;;;0.57;;
60078;SDS011;45951;45.824;8.824;2024-03-02T00:34:35;1.37;;;0.60;;
60078;SDS011;45951;45.824;8.824;2024-03-02T00:36:16;0.68;;;0.50;;
60078;SDS011;45951;45.824;8.824;2024-03-02T00:38:04;0.45;;;0.45;;
60078;SDS011;45951;45.824;8.824;2024-03-02T00:39:48;0.75;;;0.60;;
60078;SDS011;45951;45.824;8.824;2024-03-02T00:44:58;0.57;;;0.57;;
60078;SDS011;45951;45.824;8.824;2024-03-02T00:46:40;0.93;;;0.63;;
60078;SDS011;45951;45.824;8.824;2024-03-02T00:48:20;1.58;;;0.93;;
60078;SDS011;45951;45.824;8.824;2024-03-02T00:50:00;0.70;;;0.65;;
60078;SDS011;45951;45.824;8.824;2024-03-02T00:51:41;0.70;;;0.70;;
60078;SDS011;45951;45.824;8.824;2024-03-02T00:53:23;0.82;;;0.65;;
60078;SDS011;45951;45.824;8.824;2024-03-02T00:55:04;0.60;;;0.60;;
60078;SDS011;45951;45.824;8.824;2024-03-02T00:56:45;0.70;;;0.63;;
60078;SDS011;45951;45.824;8.824;2024-03-02T00:58:27;0.52;;;0.43;;
60078;SDS011;45951;45.824;8.824;2024-03-02T01:00:07;1.02;;;0.70;;
60078;SDS011;45951;45.824;8.824;2024-03-02T01:01:50;0.77;;;0.65;;
60078;SDS011;45951;45.824;8.824;2024-03-02T01:03:33;0.70;;;0.60;;
60078;SDS011;45951;45.824;8.824;2024-03-02T01:05:14;0.55;;;0.55;;
60078;SDS011;45951;45.824;8.824;2024-03-02T01:06:54;0.50;;;0.50;;
60078;SDS011;45951;45.824;8.824;2024-03-02T01:08:35;0.75;;;0.70;;
60078;SDS011;45951;45.824;8.824;2024-03-02T01:10:15;0.73;;;0.50;;
60078;SDS011;45951;45.824;8.824;2024-03-02T01:11:55;0.60;;;0.50;;
60078;SDS011;45951;45.824;8.824;2024-03-02T01:13:36;0.50;;;0.50;;
60078;SDS011;45951;45.824;8.824;2024-03-02T01:15:16;0.70;;;0.70;;
60078;SDS011;45951;45.824;8.824;2024-03-02T01:16:56;0.60;;;0.55;;
60078;SDS011;45951;45.824;8.824;2024-03-02T01:18:36;1.10;;;0.63;;
60078;SDS011;45951;45.824;8.824;2024-03-02T01:20:16;0.55;;;0.55;;
60078;SDS011;45951;45.824;8.824;2024-03-02T01:21:57;0.90;;;0.70;;
60078;SDS011;45951;45.824;8.824;2024-03-02T01:23:37;1.02;;;0.60;;
60078;SDS011;45951;45.824;8.824;2024-03-02T01:25:17;0.70;;;0.70;;
60078;SDS011;45951;45.824;8.824;2024-03-02T01:26:58;0.57;;;0.57;;
60078;SDS011;45951;45.824;8.824;2024-03-02T01:28:38;1.03;;;0.80;;
60078;SDS011;45951;45.824;8.824;2024-03-02T01:30:18;0.68;;;0.68;;
60078;SDS011;45951;45.824;8.824;2024-03-02T01:31:58;0.50;;;0.50;;
60078;SDS011;45951;45.824;8.824;2024-03-02T01:33:39;0.55;;;0.55;;
60078;SDS011;45951;45.824;8.824;2024-03-02T01:35:19;0.70;;;0.70;;
60078;SDS011;45951;45.824;8.824;2024-03-02T01:37:00;1.35;;;0.75;;
60078;SDS011;45951;45.824;8.824;2024-03-02T01:38:40;0.63;;;0.60;;
60078;SDS011;45951;45.824;8.824;2024-03-02T01:40:20;1.02;;;0.57;;
60078;SDS011;45951;45.824;8.824;2024-03-02T01:42:00;0.90;;;0.70;;
60078;SDS011;45951;45.824;8.824;2024-03-02T01:43:41;0.73;;;0.73;;
60078;SDS011;45951;45.824;8.824;2024-03-02T01:45:21;0.60;;;0.60;;
60078;SDS011;45951;45.824;8.824;2024-03-02T01:47:01;0.80;;;0.80;;
60078;SDS011;45951;45.824;8.824;2024-03-02T01:48:41;0.55;;;0.55;;
60078;SDS011;45951;45.824;8.824;2024-03-02T01:50:29;0.80;;;0.70;;
60078;SDS011;45951;45.824;8.824;2024-03-02T01:52:09;0.70;;;0.70;;
60078;SDS011;45951;45.824;8.824;2024-03-02T01:53:49;1.03;;;0.63;;
60078;SDS011;45951;45.824;8.824;2024-03-02T01:55:29;0.50;;;0.50;;
60078;SDS011;45951;45.824;8.824;2024-03-02T01:57:10;0.70;;;0.70;;
60078;SDS011;45951;45.824;8.824;2024-03-02T01:58:50;0.95;;;0.80;;
60078;SDS011;45951;45.824;8.824;2024-03-02T02:00:30;0.97;;;0.70;;
60078;SDS011;45951;45.824;8.824;2024-03-02T02:02:12;0.60;;;0.60;;
60078;SDS011;45951;45.824;8.824;2024-03-02T02:03:52;1.37;;;0.60;;
60078;SDS011;45951;45.824;8.824;2024-03-02T02:05:33;1.17;;;0.60;;
60078;SDS011;45951;45.824;8.824;2024-03-02T02:07:13;2.67;;;0.82;;
60078;SDS011;45951;45.824;8.824;2024-03-02T02:08:54;2.08;;;0.90;;
60078;SDS011;45951;45.824;8.824;2024-03-02T02:10:34;0.75;;;0.60;;
60078;SDS011;45951;45.824;8.824;2024-03-02T02:12:14;2.47;;;0.50;;
60078;SDS011;45951;45.824;8.824;2024-03-02T02:13:55;0.70;;;0.70;;
60078;SDS011;45951;45.824;8.824;2024-03-02T02:15:36;1.02;;;0.70;;
60078;SDS011;45951;45.824;8.824;2024-03-02T02:17:16;1.10;;;0.70;;
60078;SDS011;45951;45.824;8.824;2024-03-02T02:18:56;1.10;;;1.00;;
60078;SDS011;45951;45.824;8.824;2024-03-02T02:20:37;1.00;;;0.65;;
60078;SDS011;45951;45.824;8.824;2024-03-02T02:22:17;1.00;;;0.53;;
60078;SDS011;45951;45.824;8.824;2024-03-02T02:23:57;0.77;;;0.77;;
60078;SDS011;45951;45.824;8.824;2024-03-02T02:25:37;1.57;;;0.70;;
60078;SDS011;45951;45.824;8.824;2024-03-02T02:27:17;0.70;;;0.70;;
60078;SDS011;45951;45.824;8.824;2024-03-02T02:28:58;0.77;;;0.77;;
60078;SDS011;45951;45.824;8.824;2024-03-02T02:30:38;1.37;;;0.67;;
60078;SDS011;45951;45.824;8.824;2024-03-02T02:32:18;1.63;;;0.80;;
60078;SDS011;45951;45.824;8.824;2024-03-02T02:33:58;0.70;;;0.70;;
60078;SDS011;45951;45.824;8.824;2024-03-02T02:35:38;1.02;;;0.70;;
60078;SDS011;45951;45.824;8.824;2024-03-02T02:37:19;0.63;;;0.60;;
60078;SDS011;45951;45.824;8.824;2024-03-02T02:39:00;0.70;;;0.70;;
60078;SDS011;45951;45.824;8.824;2024-03-02T02:40:43;1.83;;;0.60;;
60078;SDS011;45951;45.824;8.824;2024-03-02T02:42:23;0.50;;;0.50;;
60078;SDS011;45951;45.824;8.824;2024-03-02T02:44:04;0.77;;;0.70;;
60078;SDS011;45951;45.824;8.824;2024-03-02T02:45:44;1.05;;;0.63;;
60078;SDS011;45951;45.824;8.824;2024-03-02T02:47:25;0.63;;;0.60;;
60078;SDS011;45951;45.824;8.824;2024-03-02T02:49:05;0.70;;;0.70;;
60078;SDS011;45951;45.824;8.824;2024-03-02T02:50:45;0.98;;;0.70;;
60078;SDS011;45951;45.824;8.824;2024-03-02T02:52:26;0.73;;;0.60;;
60078;SDS011;45951;45.824;8.824;2024-03-02T02:54:10;0.60;;;0.60;;
60078;SDS011;45951;45.824;8.824;2024-03-02T02:55:51;1.42;;;0.50;;
60078;SDS011;45951;45.824;8.824;2024-03-02T02:57:32;0.85;;;0.60;;
60078;SDS011;45951;45.824;8.824;2024-03-02T02:59:15;0.60;;;0.60;;
60078;SDS011;45951;45.824;8.824;2024-03-02T03:00:55;0.50;;;0.50;;
60078;SDS011;45951;45.824;8.824;2024-03-02T03:02:37;1.08;;;0.75;;
60078;SDS011;45951;45.824;8.824;2024-03-02T03:04:17;1.05;;;0.73;;
60078;SDS011;45951;45.824;8.824;2024-03-02T03:05:58;1.07;;;0.80;;
60078;SDS011;45951;45.824;8.824;2024-03-02T03:07:41;1.33;;;0.73;;
60078;SDS011;45951;45.824;8.824;2024-03-02T03:09:21;0.63;;;0.50;;
60078;SDS011;45951;45.824;8.824;2024-03-02T03:11:01;0.90;;;0.70;;
60078;SDS011;45951;45.824;8.824;2024-03-02T03:12:42;0.80;;;0.70;;
60078;SDS011;45951;45.824;8.824;2024-03-02T03:14:22;0.55;;;0.55;;
60078;SDS011;45951;45.824;8.824;2024-03-02T03:16:03;0.65;;;0.60;;
60078;SDS011;45951;45.824;8.824;2024-03-02T03:17:43;0.70;;;0.70;;
60078;SDS011;45951;45.824;8.824;2024-03-02T03:19:24;0.40;;;0.40;;
60078;SDS011;45951;45.824;8.824;2024-03-02T03:21:04;1.10;;;0.70;;
60078;SDS011;45951;45.824;8.824;2024-03-02T03:22:44;1.23;;;0.50;;
60078;SDS011;45951;45.824;8.824;2024-03-02T03:24:24;0.75;;;0.60;;
60078;SDS011;45951;45.824;8.824;2024-03-02T03:26:05;0.53;;;0.50;;
60078;SDS011;45951;45.824;8.824;2024-03-02T03:27:45;1.13;;;0.60;;
60078;SDS011;45951;45.824;8.824;2024-03-02T03:29:26;0.50;;;0.50;;
60078;SDS011;45951;45.824;8.824;2024-03-02T03:31:06;0.40;;;0.40;;
60078;SDS011;45951;45.824;8.824;2024-03-02T03:32:47;0.60;;;0.60;;
60078;SDS011;45951;45.824;8.824;2024-03-02T03:34:28;0.65;;;0.65;;
60078;SDS011;45951;45.824;8.824;2024-03-02T03:36:09;0.70;;;0.57;;
60078;SDS011;45951;45.824;8.824;2024-03-02T03:37:49;1.57;;;0.67;;
60078;SDS011;45951;45.824;8.824;2024-03-02T03:39:29;0.93;;;0.73;;
60078;SDS011;45951;45.824;8.824;2024-03-02T03:41:09;1.63;;;0.70;;
60078;SDS011;45951;45.824;8.824;2024-03-02T03:42:49;1.73;;;0.50;;
60078;SDS011;45951;45.824;8.824;2024-03-02T03:44:30;0.60;;;0.60;;
60078;SDS011;45951;45.824;8.824;2024-03-02T03:46:10;1.00;;;0.90;;
60078;SDS011;45951;45.824;8.824;2024-03-02T03:47:51;0.85;;;0.60;;
60078;SDS011;45951;45.824;8.824;2024-03-02T03:49:31;0.77;;;0.70;;
60078;SDS011;45951;45.824;8.824;2024-03-02T03:51:11;0.65;;;0.50;;
60078;SDS011;45951;45.824;8.824;2024-03-02T03:52:51;0.40;;;0.40;;
60078;SDS011;45951;45.824;8.824;2024-03-02T03:54:32;0.57;;;0.57;;
60078;SDS011;45951;45.824;8.824;2024-03-02T03:56:12;0.60;;;0.50;;
60078;SDS011;45951;45.824;8.824;2024-03-02T03:57:52;1.45;;;0.65;;
60078;SDS011;45951;45.824;8.824;2024-03-02T03:59:32;2.50;;;0.80;;
60078;SDS011;45951;45.824;8.824;2024-03-02T04:01:13;0.50;;;0.50;;
60078;SDS011;45951;45.824;8.824;2024-03-02T04:02:53;3.47;;;0.80;;
60078;SDS011;45951;45.824;8.824;2024-03-02T04:04:33;1.00;;;0.85;;
60078;SDS011;45951;45.824;8.824;2024-03-02T04:06:13;0.70;;;0.70;;
60078;SDS011;45951;45.824;8.824;2024-03-02T04:07:54;0.63;;;0.60;;
60078;SDS011;45951;45.824;8.824;2024-03-02T04:09:34;0.60;;;0.60;;
60078;SDS011;45951;45.824;8.824;2024-03-02T04:11:14;2.27;;;0.67;;
60078;SDS011;45951;45.824;8.824;2024-03-02T04:12:54;0.85;;;0.70;;
60078;SDS011;45951;45.824;8.824;2024-03-02T04:14:34;0.90;;;0.60;;
60078;SDS011;45951;45.824;8.824;2024-03-02T04:16:15;2.10;;;0.70;;
60078;SDS011;45951;45.824;8.824;2024-03-02T04:17:55;0.80;;;0.80;;
60078;SDS011;45951;45.824;8.824;2024-03-02T04:19:35;0.60;;;0.60;;
60078;SDS011;45951;45.824;8.824;2024-03-02T04:21:15;1.10;;;0.53;;
60078;SDS011;45951;45.824;8.824;2024-03-02T04:22:55;0.80;;;0.57;;
60078;SDS011;45951;45.824;8.824;2024-03-02T04:24:36;0.70;;;0.60;;
60078;SDS011;45951;45.824;8.824;2024-03-02T04:26:16;1.03;;;0.53;;
60078;SDS011;45951;45.824;8.824;2024-03-02T04:27:59;0.52;;;0.52;;
60078;SDS011;45951;45.824;8.824;2024-03-02T04:29:40;1.20;;;0.70;;
60078;SDS011;45951;45.824;8.824;2024-03-02T04:31:20;1.17;;;0.70;;
60078;SDS011;45951;45.824;8.824;2024-03-02T04:33:00;0.65;;;0.60;;
60078;SDS011;45951;45.824;8.824;2024-03-02T04:34:42;0.43;;;0.43;;
60078;SDS011;45951;45.824;8.824;2024-03-02T04:36:22;1.05;;;0.85;;
60078;SDS011;45951;45.824;8.824;2024-03-02T04:38:03;0.73;;;0.50;;
60078;SDS011;45951;45.824;8.824;2024-03-02T04:39:43;1.80;;;0.85;;
60078;SDS011;45951;45.824;8.824;2024-03-02T04:41:24;1.30;;;0.80;;
60078;SDS011;45951;45.824;8.824;2024-03-02T04:43:04;0.87;;;0.70;;
60078;SDS011;45951;45.824;8.824;2024-03-02T04:44:44;0.50;;;0.50;;
60078;SDS011;45951;45.824;8.824;2024-03-02T04:46:24;0.50;;;0.50;;
60078;SDS011;45951;45.824;8.824;2024-03-02T04:48:05;0.52;;;0.40;;
60078;SDS011;45951;45.824;8.824;2024-03-02T04:49:45;0.90;;;0.82;;
60078;SDS011;45951;45.824;8.824;2024-03-02T04:51:26;0.57;;;0.55;;
60078;SDS011;45951;45.824;8.824;2024-03-02T04:53:06;0.40;;;0.40;;
60078;SDS011;45951;45.824;8.824;2024-03-02T04:54:46;1.25;;;0.65;;
60078;SDS011;45951;45.824;8.824;2024-03-02T04:56:45;0.60;;;0.60;;
60078;SDS011;45951;45.824;8.824;2024-03-02T04:58:30;0.50;;;0.50;;
60078;SDS011;45951;45.824;8.824;2024-03-02T05:00:10;0.73;;;0.70;;
60078;SDS011;45951;45.824;8.824;2024-03-02T05:01:50;2.47;;;0.68;;
60078;SDS011;45951;45.824;8.824;2024-03-02T05:03:31;0.60;;;0.60;;
60078;SDS011;45951;45.824;8.824;2024-03-02T05:05:11;0.53;;;0.50;;
60078;SDS011;45951;45.824;8.824;2024-03-02T05:06:51;1.65;;;0.50;;
60078;SDS011;45951;45.824;8.824;2024-03-02T05:08:32;0.50;;;0.50;;
60078;SDS011;45951;45.824;8.824;2024-03-02T05:10:12;0.90;;;0.53;;
60078;SDS011;45951;45.824;8.824;2024-03-02T05:11:52;0.60;;;0.60;;
60078;SDS011;45951;45.824;8.824;2024-03-02T05:13:51;1.73;;;0.60;;
60078;SDS011;45951;45.824;8.824;2024-03-02T05:15:31;0.50;;;0.50;;
60078;SDS011;45951;45.824;8.824;2024-03-02T05:17:11;1.80;;;0.73;;
60078;SDS011;45951;45.824;8.824;2024-03-02T05:18:52;0.97;;;0.53;;
60078;SDS011;45951;45.824;8.824;2024-03-02T05:20:32;0.57;;;0.57;;
60078;SDS011;45951;45.824;8.824;2024-03-02T05:22:12;1.33;;;0.70;;
60078;SDS011;45951;45.824;8.824;2024-03-02T05:23:52;2.55;;;0.70;;
60078;SDS011;45951;45.824;8.824;2024-03-02T05:25:32;0.82;;;0.73;;
60078;SDS011;45951;45.824;8.824;2024-03-02T05:27:15;0.75;;;0.75;;
60078;SDS011;45951;45.824;8.824;2024-03-02T05:28:55;0.90;;;0.80;;
60078;SDS011;45951;45.824;8.824;2024-03-02T05:30:35;0.40;;;0.40;;
60078;SDS011;45951;45.824;8.824;2024-03-02T05:32:16;0.90;;;0.90;;
60078;SDS011;45951;45.824;8.824;2024-03-02T05:33:56;0.77;;;0.60;;
60078;SDS011;45951;45.824;8.824;2024-03-02T05:35:36;0.60;;;0.60;;
60078;SDS011;45951;45.824;8.824;2024-03-02T05:37:16;0.47;;;0.47;;
60078;SDS011;45951;45.824;8.824;2024-03-02T05:38:57;2.67;;;0.88;;
60078;SDS011;45951;45.824;8.824;2024-03-02T05:40:37;2.45;;;0.90;;
60078;SDS011;45951;45.824;8.824;2024-03-02T05:42:17;0.83;;;0.70;;
60078;SDS011;45951;45.824;8.824;2024-03-02T05:43:58;1.48;;;0.95;;
60078;SDS011;45951;45.824;8.824;2024-03-02T05:45:38;0.50;;;0.50;;
60078;SDS011;45951;45.824;8.824;2024-03-02T05:47:19;2.25;;;0.65;;
60078;SDS011;45951;45.824;8.824;2024-03-02T05:48:59;3.05;;;1.00;;
60078;SDS011;45951;45.824;8.824;2024-03-02T05:50:40;0.60;;;0.60;;
60078;SDS011;45951;45.824;8.824;2024-03-02T05:52:21;0.93;;;0.70;;
60078;SDS011;45951;45.824;8.824;2024-03-02T05:54:01;1.23;;;0.87;;
60078;SDS011;45951;45.824;8.824;2024-03-02T05:55:41;1.15;;;0.70;;
60078;SDS011;45951;45.824;8.824;2024-03-02T05:57:21;1.43;;;0.80;;
60078;SDS011;45951;45.824;8.824;2024-03-02T05:59:20;1.23;;;0.77;;
60078;SDS011;45951;45.824;8.824;2024-03-02T06:01:00;0.95;;;0.50;;
60078;SDS011;45951;45.824;8.824;2024-03-02T06:02:41;1.13;;;0.75;;
60078;SDS011;45951;45.824;8.824;2024-03-02T06:04:21;1.15;;;0.75;;
60078;SDS011;45951;45.824;8.824;2024-03-02T06:06:01;2.15;;;1.00;;
60078;SDS011;45951;45.824;8.824;2024-03-02T06:07:42;2.03;;;1.20;;
60078;SDS011;45951;45.824;8.824;2024-03-02T06:09:22;3.15;;;1.65;;
60078;SDS011;45951;45.824;8.824;2024-03-02T06:11:04;0.85;;;0.68;;
60078;SDS011;45951;45.824;8.824;2024-03-02T06:12:44;2.45;;;1.08;;
60078;SDS011;45951;45.824;8.824;2024-03-02T06:14:25;2.20;;;0.93;;
60078;SDS011;45951;45.824;8.824;2024-03-02T06:16:05;0.82;;;0.73;;
60078;SDS011;45951;45.824;8.824;2024-03-02T06:17:45;1.42;;;0.80;;
60078;SDS011;45951;45.824;8.824;2024-03-02T06:19:26;1.17;;;0.77;;
60078;SDS011;45951;45.824;8.824;2024-03-02T06:21:07;0.93;;;0.70;;
60078;SDS011;45951;45.824;8.824;2024-03-02T06:22:48;1.10;;;1.00;;
60078;SDS011;45951;45.824;8.824;2024-03-02T06:24:28;1.60;;;1.00;;
60078;SDS011;45951;45.824;8.824;2024-03-02T06:26:08;1.38;;;1.08;;
60078;SDS011;45951;45.824;8.824;2024-03-02T06:27:48;1.73;;;0.97;;
60078;SDS011;45951;45.824;8.824;2024-03-02T06:29:28;1.23;;;0.93;;
60078;SDS011;45951;45.824;8.824;2024-03-02T06:31:09;2.30;;;0.83;;
60078;SDS011;45951;45.824;8.824;2024-03-02T06:32:49;1.67;;;1.20;;
60078;SDS011;45951;45.824;8.824;2024-03-02T06:34:30;1.20;;;0.90;;
60078;SDS011;45951;45.824;8.824;2024-03-02T06:36:10;1.27;;;0.80;;
60078;SDS011;45951;45.824;8.824;2024-03-02T06:37:51;2.97;;;2.10;;
60078;SDS011;45951;45.824;8.824;2024-03-02T06:39:32;3.17;;;1.85;;
60078;SDS011;45951;45.824;8.824;2024-03-02T06:41:14;1.92;;;1.50;;
60078;SDS011;45951;45.824;8.824;2024-03-02T06:42:54;2.47;;;1.67;;
60078;SDS011;45951;45.824;8.824;2024-03-02T06:44:34;2.17;;;1.35;;
60078;SDS011;45951;45.824;8.824;2024-03-02T06:46:14;2.20;;;1.50;;
60078;SDS011;45951;45.824;8.824;2024-03-02T06:47:55;2.17;;;1.52;;
60078;SDS011;45951;45.824;8.824;2024-03-02T06:49:35;2.30;;;1.47;;
60078;SDS011;45951;45.824;8.824;2024-03-02T06:51:15;2.50;;;1.50;;
60078;SDS011;45951;45.824;8.824;2024-03-02T06:52:55;2.53;;;1.33;;
60078;SDS011;45951;45.824;8.824;2024-03-02T06:54:36;1.27;;;1.08;;
60078;SDS011;45951;45.824;8.824;2024-03-02T06:56:16;2.20;;;1.13;;
60078;SDS011;45951;45.824;8.824;2024-03-02T06:57:57;2.00;;;0.90;;
60078;SDS011;45951;45.824;8.824;2024-03-02T06:59:37;1.48;;;1.00;;
60078;SDS011;45951;45.824;8.824;2024-03-02T07:01:17;2.75;;;1.30;;
60078;SDS011;45951;45.824;8.824;2024-03-02T07:02:57;2.20;;;1.30;;
60078;SDS011;45951;45.824;8.824;2024-03-02T07:04:38;1.20;;;1.10;;
60078;SDS011;45951;45.824;8.824;2024-03-02T07:06:18;1.50;;;1.15;;
60078;SDS011;45951;45.824;8.824;2024-03-02T07:07:58;1.35;;;0.98;;
60078;SDS011;45951;45.824;8.824;2024-03-02T07:09:39;2.05;;;0.80;;
60078;SDS011;45951;45.824;8.824;2024-03-02T07:11:19;1.70;;;1.40;;
60078;SDS011;45951;45.824;8.824;2024-03-02T07:13:00;1.37;;;1.00;;
60078;SDS011;45951;45.824;8.824;2024-03-02T07:14:41;1.08;;;0.93;;
60078;SDS011;45951;45.824;8.824;2024-03-02T07:16:39;2.40;;;0.90;;
60078;SDS011;45951;45.824;8.824;2024-03-02T07:18:20;0.80;;;0.80;;
60078;SDS011;45951;45.824;8.824;2024-03-02T07:20:00;2.50;;;1.30;;
60078;SDS011;45951;45.824;8.824;2024-03-02T07:21:41;1.13;;;0.90;;
60078;SDS011;45951;45.824;8.824;2024-03-02T07:23:22;1.15;;;1.05;;
60078;SDS011;45951;45.824;8.824;2024-03-02T07:25:05;1.88;;;1.05;;
60078;SDS011;45951;45.824;8.824;2024-03-02T07:26:47;1.05;;;0.73;;
60078;SDS011;45951;45.824;8.824;2024-03-02T07:28:27;1.58;;;0.68;;
60078;SDS011;45951;45.824;8.824;2024-03-02T07:30:08;0.60;;;0.57;;
60078;SDS011;45951;45.824;8.824;2024-03-02T07:31:48;1.42;;;0.68;;
60078;SDS011;45951;45.824;8.824;2024-03-02T07:33:29;0.65;;;0.60;;
60078;SDS011;45951;45.824;8.824;2024-03-02T07:35:09;0.80;;;0.80;;
60078;SDS011;45951;45.824;8.824;2024-03-02T07:36:49;2.85;;;1.10;;
60078;SDS011;45951;45.824;8.824;2024-03-02T07:38:30;1.27;;;0.90;;
60078;SDS011;45951;45.824;8.824;2024-03-02T07:40:10;1.25;;;0.80;;
60078;SDS011;45951;45.824;8.824;2024-03-02T07:41:54;0.70;;;0.70;;
60078;SDS011;45951;45.824;8.824;2024-03-02T07:43:34;0.98;;;0.63;;
60078;SDS011;45951;45.824;8.824;2024-03-02T07:45:15;2.10;;;1.00;;
60078;SDS011;45951;45.824;8.824;2024-03-02T07:46:55;1.13;;;1.00;;
60078;SDS011;45951;45.824;8.824;2024-03-02T07:48:35;1.83;;;1.27;;
60078;SDS011;45951;45.824;8.824;2024-03-02T07:50:15;1.05;;;0.80;;
60078;SDS011;45951;45.824;8.824;2024-03-02T07:51:56;2.20;;;0.93;;
60078;SDS011;45951;45.824;8.824;2024-03-02T07:53:36;2.25;;;1.30;;
60078;SDS011;45951;45.824;8.824;2024-03-02T07:55:16;3.83;;;2.28;;
60078;SDS011;45951;45.824;8.824;2024-03-02T07:56:56;2.22;;;1.70;;
60078;SDS011;45951;45.824;8.824;2024-03-02T07:58:37;1.70;;;1.40;;
60078;SDS011;45951;45.824;8.824;2024-03-02T08:00:18;2.63;;;1.70;;
60078;SDS011;45951;45.824;8.824;2024-03-02T08:01:58;3.75;;;2.08;;
60078;SDS011;45951;45.824;8.824;2024-03-02T08:03:38;3.17;;;2.00;;
60078;SDS011;45951;45.824;8.824;2024-03-02T08:05:19;4.18;;;1.80;;
60078;SDS011;45951;45.824;8.824;2024-03-02T08:06:59;3.10;;;1.58;;
60078;SDS011;45951;45.824;8.824;2024-03-02T08:08:39;1.65;;;1.40;;
60078;SDS011;45951;45.824;8.824;2024-03-02T08:10:19;1.57;;;1.27;;
60078;SDS011;45951;45.824;8.824;2024-03-02T08:12:00;2.08;;;1.17;;
60078;SDS011;45951;45.824;8.824;2024-03-02T08:13:40;1.95;;;1.20;;
60078;SDS011;45951;45.824;8.824;2024-03-02T08:15:21;3.17;;;1.20;;
60078;SDS011;45951;45.824;8.824;2024-03-02T08:17:01;3.60;;;1.70;;
60078;SDS011;45951;45.824;8.824;2024-03-02T08:18:41;2.95;;;1.30;;
60078;SDS011;45951;45.824;8.824;2024-03-02T08:20:22;2.53;;;1.33;;
60078;SDS011;45951;45.824;8.824;2024-03-02T08:22:02;1.75;;;1.27;;
60078;SDS011;45951;45.824;8.824;2024-03-02T08:23:43;1.83;;;1.30;;
60078;SDS011;45951;45.824;8.824;2024-03-02T08:25:23;1.98;;;1.20;;
60078;SDS011;45951;45.824;8.824;2024-03-02T08:27:03;1.88;;;1.30;;
60078;SDS011;45951;45.824;8.824;2024-03-02T08:28:44;1.10;;;0.95;;
60078;SDS011;45951;45.824;8.824;2024-03-02T08:30:24;1.10;;;0.80;;
60078;SDS011;45951;45.824;8.824;2024-03-02T08:32:05;2.07;;;0.80;;
60078;SDS011;45951;45.824;8.824;2024-03-02T08:33:45;0.85;;;0.70;;
60078;SDS011;45951;45.824;8.824;2024-03-02T08:35:25;2.50;;;1.00;;
60078;SDS011;45951;45.824;8.824;2024-03-02T08:37:05;1.75;;;0.88;;
60078;SDS011;45951;45.824;8.824;2024-03-02T08:38:46;2.08;;;0.90;;
60078;SDS011;45951;45.824;8.824;2024-03-02T08:40:28;1.20;;;0.90;;
60078;SDS011;45951;45.824;8.824;2024-03-02T08:42:08;1.83;;;1.02;;
60078;SDS011;45951;45.824;8.824;2024-03-02T08:43:49;3.40;;;1.33;;
60078;SDS011;45951;45.824;8.824;2024-03-02T08:45:29;1.60;;;0.82;;
60078;SDS011;45951;45.824;8.824;2024-03-02T08:47:09;1.10;;;1.00;;
60078;SDS011;45951;45.824;8.824;2024-03-02T08:48:49;1.33;;;0.90;;
60078;SDS011;45951;45.824;8.824;2024-03-02T08:50:29;0.95;;;0.82;;
60078;SDS011;45951;45.824;8.824;2024-03-02T08:52:10;2.00;;;0.90;;
60078;SDS011;45951;45.824;8.824;2024-03-02T08:53:50;2.10;;;1.23;;
60078;SDS011;45951;45.824;8.824;2024-03-02T08:55:30;1.63;;;1.00;;
60078;SDS011;45951;45.824;8.824;2024-03-02T08:57:10;0.70;;;0.70;;
60078;SDS011;45951;45.824;8.824;2024-03-02T08:58:51;1.17;;;0.90;;
60078;SDS011;45951;45.824;8.824;2024-03-02T09:00:31;1.88;;;1.20;;
60078;SDS011;45951;45.824;8.824;2024-03-02T09:02:11;3.00;;;1.70;;
60078;SDS011;45951;45.824;8.824;2024-03-02T09:03:52;1.20;;;1.00;;
60078;SDS011;45951;45.824;8.824;2024-03-02T09:05:32;3.20;;;1.40;;
60078;SDS011;45951;45.824;8.824;2024-03-02T09:07:12;2.23;;;1.30;;
60078;SDS011;45951;45.824;8.824;2024-03-02T09:08:52;2.23;;;1.10;;
60078;SDS011;45951;45.824;8.824;2024-03-02T09:10:32;1.08;;;0.98;;
60078;SDS011;45951;45.824;8.824;2024-03-02T09:12:13;1.63;;;1.15;;
60078;SDS011;45951;45.824;8.824;2024-03-02T09:13:53;1.83;;;1.35;;
60078;SDS011;45951;45.824;8.824;2024-03-02T09:15:36;1.33;;;1.23;;
60078;SDS011;45951;45.824;8.824;2024-03-02T09:17:17;1.48;;;1.20;;
60078;SDS011;45951;45.824;8.824;2024-03-02T09:18:57;3.15;;;1.70;;
60078;SDS011;45951;45.824;8.824;2024-03-02T09:20:38;3.22;;;1.60;;
60078;SDS011;45951;45.824;8.824;2024-03-02T09:22:18;1.37;;;1.20;;
60078;SDS011;45951;45.824;8.824;2024-03-02T09:23:59;4.07;;;1.40;;
60078;SDS011;45951;45.824;8.824;2024-03-02T09:25:39;1.38;;;1.27;;
60078;SDS011;45951;45.824;8.824;2024-03-02T09:27:19;1.38;;;0.77;;
60078;SDS011;45951;45.824;8.824;2024-03-02T09:28:59;1.47;;;0.90;;
60078;SDS011;45951;45.824;8.824;2024-03-02T09:30:39;0.70;;;0.70;;
60078;SDS011;45951;45.824;8.824;2024-03-02T09:32:20;0.77;;;0.77;;
60078;SDS011;45951;45.824;8.824;2024-03-02T09:34:00;0.88;;;0.80;;
60078;SDS011;45951;45.824;8.824;2024-03-02T09:35:40;1.23;;;0.70;;
60078;SDS011;45951;45.824;8.824;2024-03-02T09:37:20;2.10;;;1.17;;
60078;SDS011;45951;45.824;8.824;2024-03-02T09:39:00;1.43;;;1.10;;
60078;SDS011;45951;45.824;8.824;2024-03-02T09:40:41;2.22;;;1.17;;
60078;SDS011;45951;45.824;8.824;2024-03-02T09:42:22;1.63;;;1.20;;
60078;SDS011;45951;45.824;8.824;2024-03-02T09:44:02;2.20;;;1.10;;
60078;SDS011;45951;45.824;8.824;2024-03-02T09:45:43;2.90;;;1.55;;
60078;SDS011;45951;45.824;8.824;2024-03-02T09:47:24;2.28;;;1.48;;
60078;SDS011;45951;45.824;8.824;2024-03-02T09:49:04;2.30;;;1.70;;
60078;SDS011;45951;45.824;8.824;2024-03-02T09:50:44;2.53;;;1.80;;
60078;SDS011;45951;45.824;8.824;2024-03-02T09:52:25;2.80;;;1.90;;
60078;SDS011;45951;45.824;8.824;2024-03-02T09:54:05;4.22;;;2.20;;
60078;SDS011;45951;45.824;8.824;2024-03-02T09:55:47;4.43;;;2.45;;
60078;SDS011;45951;45.824;8.824;2024-03-02T09:57:27;4.60;;;2.72;;
60078;SDS011;45951;45.824;8.824;2024-03-02T09:59:07;4.80;;;3.50;;
60078;SDS011;45951;45.824;8.824;2024-03-02T10:00:48;4.10;;;2.95;;
60078;SDS011;45951;45.824;8.824;2024-03-02T10:02:29;5.72;;;3.55;;
60078;SDS011;45951;45.824;8.824;2024-03-02T10:04:09;6.77;;;3.93;;
60078;SDS011;45951;45.824;8.824;2024-03-02T10:05:50;5.93;;;3.80;;
60078;SDS011;45951;45.824;8.824;2024-03-02T10:07:30;6.47;;;3.57;;
60078;SDS011;45951;45.824;8.824;2024-03-02T10:09:10;5.50;;;3.47;;
60078;SDS011;45951;45.824;8.824;2024-03-02T10:10:50;5.20;;;3.23;;
60078;SDS011;45951;45.824;8.824;2024-03-02T10:12:30;4.82;;;3.10;;